Decoded Metar for KNKT (CHERRY POINT in NC, USA) (IATA:NKT) | Meteo·Mobile Aviation Weather
aviador You're here:

KNKT Decoded Metar

CHERRY POINT in NC, USA
Report Time2019-09-23 07:54:00
UTC Time2019-09-23 08:53:09
Flight Rules vfr VFR
WindCalm
Visibility9999 m
Phenomena:N/A
Clouds:N/A
Expected CloudBase > 800 ft AGL from Temp-Dew spread
CeilingNone
Temp17°C (ISA +2)
Dew Point15°C (88% RH)
QNH1020 hPa
Density Alt262 ft
Elevation30 ft
Report Wrong Elevation
Raw Report
KNKT 230754Z 00000KT 10SM CLR 17/15 A3011 RMK AO2 SLP191
T01720150=

Extra information for KNKT:More info

Metar Taf Metar & Taf Last 4 Metars F.Rules Stats Wind Profile Meteogram Temp Stats Airport Information Weather charts Add Link Nearby VenuesMetar ALERT Operation Metar Decoded Social comments

AIRNAV info for KNKT